createdAt,value
2019-05-09T00:02:39.148Z,98782.89
2019-05-09T00:05:28.426Z,98782.94
2019-05-09T00:08:18.433Z,98779.67
2019-05-09T00:11:07.855Z,98773.19
2019-05-09T00:13:57.846Z,98781.60
2019-05-09T00:16:47.648Z,98776.42
2019-05-09T00:19:37.801Z,98784.31
2019-05-09T00:22:27.361Z,98790.58
2019-05-09T00:25:17.190Z,98782.44
2019-05-09T00:28:07.307Z,98780.48
2019-05-09T00:31:07.944Z,98786.71
2019-05-09T00:34:01.143Z,98788.61
2019-05-09T00:36:50.956Z,98792.36
2019-05-09T00:39:40.637Z,98787.75
2019-05-09T00:42:30.566Z,98783.95
2019-05-09T00:45:48.843Z,98793.95
2019-05-09T00:49:14.029Z,98793.38
2019-05-09T00:52:04.031Z,98805.59
2019-05-09T00:54:53.857Z,98800.44
2019-05-09T00:57:44.053Z,98797.43
2019-05-09T01:00:33.763Z,98794.98
2019-05-09T01:03:23.606Z,98798.52
2019-05-09T01:06:13.701Z,98795.27
2019-05-09T01:09:05.199Z,98808.02
2019-05-09T01:11:55.264Z,98799.88
2019-05-09T01:14:46.136Z,98799.28
2019-05-09T01:17:36.323Z,98802.81
2019-05-09T01:20:26.560Z,98805.28
2019-05-09T01:23:16.736Z,98803.91
2019-05-09T01:26:06.510Z,98802.55
2019-05-09T01:28:56.670Z,98808.22
2019-05-09T01:31:46.544Z,98820.95
2019-05-09T01:34:37.440Z,98814.69
2019-05-09T01:37:27.202Z,98814.15
2019-05-09T01:40:17.426Z,98813.06
2019-05-09T01:43:07.268Z,98817.41
2019-05-09T01:45:57.057Z,98814.77
2019-05-09T01:48:47.066Z,98821.81
2019-05-09T01:51:37.107Z,98817.20
2019-05-09T01:54:28.194Z,98810.14
2019-05-09T01:57:18.842Z,98816.41
2019-05-09T02:00:10.458Z,98810.23
2019-05-09T02:03:00.128Z,98808.06
2019-05-09T02:05:50.365Z,98812.67
2019-05-09T02:08:40.331Z,98815.95
2019-05-09T02:11:41.681Z,98817.60
2019-05-09T02:14:34.301Z,98810.30
2019-05-09T02:18:01.090Z,98821.45
2019-05-09T02:20:40.255Z,98826.60
2019-05-09T02:23:30.183Z,98830.19
2019-05-09T02:26:19.713Z,98817.45
2019-05-09T02:29:09.541Z,98822.88
2019-05-09T02:31:59.474Z,98822.06
2019-05-09T02:34:49.400Z,98826.42
2019-05-09T02:37:39.232Z,98831.58
2019-05-09T02:40:30.176Z,98826.98
2019-05-09T02:43:20.220Z,98826.45
2019-05-09T02:46:18.898Z,98818.84
2019-05-09T02:49:09.125Z,98805.59
2019-05-09T02:51:59.566Z,98818.33
2019-05-09T02:54:50.283Z,98826.47
2019-05-09T02:57:40.511Z,98822.41
2019-05-09T03:00:48.359Z,98826.23
2019-05-09T03:03:39.482Z,98815.93
2019-05-09T03:06:29.219Z,98812.98
2019-05-09T03:09:19.436Z,98813.52
2019-05-09T03:12:22.797Z,98824.08
2019-05-09T03:15:01.052Z,98824.91
2019-05-09T03:17:51.313Z,98816.23
2019-05-09T03:20:51.327Z,98808.40
2019-05-09T03:23:41.307Z,98813.55
2019-05-09T03:26:34.643Z,98813.55
2019-05-09T03:29:30.215Z,98817.34
2019-05-09T03:32:20.221Z,98818.43
2019-05-09T03:35:10.757Z,98833.05
2019-05-09T03:38:08.163Z,98830.60
2019-05-09T03:40:58.406Z,98833.02
2019-05-09T03:43:48.534Z,98822.74
2019-05-09T03:46:51.454Z,98834.67
2019-05-09T03:49:41.603Z,98838.16
2019-05-09T03:52:31.783Z,98840.03
2019-05-09T03:55:28.146Z,98839.77
2019-05-09T03:58:20.044Z,98838.12
2019-05-09T04:01:10.960Z,98835.11
2019-05-09T04:04:01.697Z,98846.24
2019-05-09T04:06:51.493Z,98843.53
2019-05-09T04:09:41.490Z,98830.81
2019-05-09T04:12:31.807Z,98833.23
2019-05-09T04:15:22.063Z,98834.31
2019-05-09T04:18:12.053Z,98846.53
2019-05-09T04:21:02.345Z,98850.33
2019-05-09T04:23:52.240Z,98851.69
2019-05-09T04:26:50.737Z,98855.23
2019-05-09T04:29:41.021Z,98850.59
2019-05-09T04:32:30.931Z,98855.21
2019-05-09T04:35:20.683Z,98862.23
2019-05-09T04:38:10.451Z,98851.66
2019-05-09T04:41:00.584Z,98865.23
2019-05-09T04:43:50.410Z,98867.11
2019-05-09T04:46:40.261Z,98870.06
2019-05-09T04:49:39.673Z,98866.27
2019-05-09T04:52:22.293Z,98877.64
2019-05-09T04:55:14.225Z,98882.79
2019-05-09T04:58:04.415Z,98883.36
2019-05-09T05:01:11.051Z,98883.05
2019-05-09T05:04:00.788Z,98885.47
2019-05-09T05:06:50.867Z,98884.91
2019-05-09T05:09:40.689Z,98882.20
2019-05-09T05:12:30.580Z,98887.61
2019-05-09T05:15:20.644Z,98892.44
2019-05-09T05:18:11.004Z,98892.16
2019-05-09T05:21:00.657Z,98900.02
2019-05-09T05:24:15.285Z,98894.05
2019-05-09T05:27:05.028Z,98902.70
2019-05-09T05:29:55.547Z,98902.19
2019-05-09T05:33:04.254Z,98900.53
2019-05-09T05:35:57.525Z,98904.34
2019-05-09T05:38:47.956Z,98906.74
2019-05-09T05:41:37.957Z,98906.95
2019-05-09T05:44:28.495Z,98904.49
2019-05-09T05:47:29.326Z,98907.98
2019-05-09T05:50:18.980Z,98902.82
2019-05-09T05:53:09.209Z,98900.92
2019-05-09T05:55:59.342Z,98901.45
2019-05-09T05:58:49.275Z,98901.45
2019-05-09T06:01:39.472Z,98899.49
2019-05-09T06:04:29.448Z,98908.14
2019-05-09T06:07:19.866Z,98907.03
2019-05-09T06:10:10.614Z,98910.80
2019-05-09T06:13:00.371Z,98905.31
2019-05-09T06:15:50.249Z,98914.23
2019-05-09T06:18:39.691Z,98917.97
2019-05-09T06:21:31.856Z,98915.45
2019-05-09T06:24:21.761Z,98910.29
2019-05-09T06:27:11.676Z,98911.10
2019-05-09T06:30:04.874Z,98905.42
2019-05-09T06:32:54.955Z,98908.63
2019-05-09T06:35:45.325Z,98914.00
2019-05-09T06:38:37.595Z,98905.49
2019-05-09T06:41:28.632Z,98910.33
2019-05-09T06:44:28.110Z,98910.88
2019-05-09T06:47:22.944Z,98919.55
2019-05-09T06:50:15.635Z,98909.17
2019-05-09T06:53:07.796Z,98907.19
2019-05-09T06:55:58.010Z,98907.91
2019-05-09T06:58:48.196Z,98905.89
2019-05-09T07:01:48.175Z,98911.79
2019-05-09T07:04:47.580Z,98899.97
2019-05-09T07:08:02.917Z,98895.77
2019-05-09T07:10:53.264Z,98893.94
2019-05-09T07:13:43.852Z,98899.52
2019-05-09T07:16:33.818Z,98901.31
2019-05-09T07:19:24.303Z,98903.86
2019-05-09T07:22:34.306Z,98892.81
2019-05-09T07:25:47.718Z,98897.50
2019-05-09T07:28:37.758Z,98906.25
2019-05-09T07:31:35.011Z,98903.72
2019-05-09T07:34:33.534Z,98905.31
2019-05-09T07:37:23.557Z,98902.43
2019-05-09T07:40:13.411Z,98903.97
2019-05-09T07:43:03.548Z,98898.39
2019-05-09T07:46:21.911Z,98904.42
2019-05-09T07:49:13.452Z,98897.46
2019-05-09T07:52:06.852Z,98900.59
2019-05-09T07:54:54.545Z,98899.03
2019-05-09T07:57:50.008Z,98896.94
2019-05-09T08:00:38.668Z,98889.59
2019-05-09T08:03:28.970Z,98888.89
2019-05-09T08:06:18.600Z,98889.41
2019-05-09T08:09:08.965Z,98894.88
2019-05-09T08:11:58.982Z,98895.13
2019-05-09T08:15:06.587Z,98895.97
2019-05-09T08:17:40.718Z,98897.77
2019-05-09T08:20:30.815Z,98895.36
2019-05-09T08:23:20.683Z,98899.72
2019-05-09T08:26:10.688Z,98896.55
2019-05-09T08:29:01.092Z,98899.93
2019-05-09T08:31:50.610Z,98902.44
2019-05-09T08:34:40.396Z,98906.77
2019-05-09T08:37:30.412Z,98902.11
2019-05-09T08:40:21.517Z,98905.59
2019-05-09T08:43:11.454Z,98908.05
2019-05-09T08:46:01.628Z,98911.38
2019-05-09T08:48:51.307Z,98904.51
2019-05-09T08:52:06.431Z,98917.33
2019-05-09T08:55:08.487Z,98916.17
2019-05-09T08:57:59.304Z,98916.33
2019-05-09T09:00:49.212Z,98908.27
2019-05-09T09:03:39.999Z,98911.19
2019-05-09T09:06:30.356Z,98915.46
2019-05-09T09:09:20.714Z,98922.70
2019-05-09T09:12:25.900Z,98916.98
2019-05-09T09:15:02.019Z,98916.64
2019-05-09T09:17:52.087Z,98916.95
2019-05-09T09:20:43.218Z,98908.66
2019-05-09T09:23:44.066Z,98909.98
2019-05-09T09:26:27.549Z,98910.91
2019-05-09T09:29:17.834Z,98913.11
2019-05-09T09:32:08.600Z,98908.18
2019-05-09T09:34:58.949Z,98904.34
2019-05-09T09:37:52.147Z,98904.34
2019-05-09T09:40:40.494Z,98910.61
2019-05-09T09:43:30.352Z,98899.16
2019-05-09T09:46:20.387Z,98897.84
2019-05-09T09:49:10.500Z,98899.55
2019-05-09T09:52:00.588Z,98902.52
2019-05-09T09:54:50.162Z,98902.05
2019-05-09T09:57:40.065Z,98899.55
2019-05-09T10:00:58.771Z,98907.80
2019-05-09T10:03:52.239Z,98898.63
2019-05-09T10:06:42.460Z,98898.21
2019-05-09T10:09:32.504Z,98898.55
2019-05-09T10:12:22.746Z,98888.69
2019-05-09T10:15:28.216Z,98893.47
2019-05-09T10:18:27.544Z,98883.77
2019-05-09T10:21:23.024Z,98884.75
2019-05-09T10:24:12.843Z,98878.86
2019-05-09T10:27:10.376Z,98880.23
2019-05-09T10:30:00.101Z,98882.27
2019-05-09T10:32:49.894Z,98889.05
2019-05-09T10:35:39.843Z,98884.24
2019-05-09T10:38:30.728Z,98882.98
2019-05-09T10:41:20.981Z,98877.52
2019-05-09T10:44:17.984Z,98876.91
2019-05-09T10:47:23.696Z,98861.49
2019-05-09T10:50:14.059Z,98866.22
2019-05-09T10:53:04.583Z,98857.78
2019-05-09T10:55:54.692Z,98857.00
2019-05-09T10:58:45.063Z,98854.88
2019-05-09T11:01:34.974Z,98854.45
2019-05-09T11:04:25.083Z,98846.62
2019-05-09T11:07:14.864Z,98843.64
2019-05-09T11:10:20.787Z,98842.42
2019-05-09T11:12:58.442Z,98843.77
2019-05-09T11:15:48.348Z,98842.15
2019-05-09T11:18:38.272Z,98842.23
2019-05-09T11:21:28.868Z,98844.25
2019-05-09T11:24:19.376Z,98836.25
2019-05-09T11:27:09.513Z,98836.80
2019-05-09T11:29:59.834Z,98847.86
2019-05-09T11:32:50.080Z,98852.73
2019-05-09T11:35:39.741Z,98855.40
2019-05-09T11:38:36.530Z,98847.31
2019-05-09T11:41:20.967Z,98845.61
2019-05-09T11:44:11.193Z,98850.98
2019-05-09T11:47:00.962Z,98844.14
2019-05-09T11:49:50.749Z,98839.45
2019-05-09T11:52:40.851Z,98844.88
2019-05-09T11:55:36.037Z,98844.88
2019-05-09T11:58:22.908Z,98835.19
2019-05-09T12:01:13.300Z,98840.13
2019-05-09T12:04:03.142Z,98836.33
2019-05-09T12:06:53.206Z,98829.63
2019-05-09T12:09:42.993Z,98835.42
2019-05-09T12:12:32.852Z,98832.94
2019-05-09T12:15:23.016Z,98833.16
2019-05-09T12:18:12.868Z,98833.95
2019-05-09T12:21:02.774Z,98833.98
2019-05-09T12:23:53.000Z,98834.89
2019-05-09T12:26:42.871Z,98834.42
2019-05-09T12:29:32.522Z,98831.03
2019-05-09T12:32:22.123Z,98828.14
2019-05-09T12:35:12.120Z,98830.38
2019-05-09T12:38:02.356Z,98827.89
2019-05-09T12:40:52.485Z,98825.77
2019-05-09T12:43:42.386Z,98833.36
2019-05-09T12:46:32.660Z,98834.77
2019-05-09T12:49:22.997Z,98832.52
2019-05-09T12:52:12.763Z,98831.17
2019-05-09T12:55:02.434Z,98831.13
2019-05-09T12:57:52.516Z,98832.84
2019-05-09T13:00:42.642Z,98831.26
2019-05-09T13:03:32.521Z,98836.11
2019-05-09T13:06:22.645Z,98833.06
2019-05-09T13:09:12.350Z,98837.09
2019-05-09T13:12:01.782Z,98837.73
2019-05-09T13:14:51.484Z,98834.09
2019-05-09T13:17:43.838Z,98835.57
2019-05-09T13:20:33.698Z,98838.59
2019-05-09T13:23:23.634Z,98831.48
2019-05-09T13:26:14.781Z,98834.52
2019-05-09T13:29:04.916Z,98830.40
2019-05-09T13:31:54.719Z,98827.64
2019-05-09T13:34:48.563Z,98830.27
2019-05-09T13:37:38.484Z,98822.15
2019-05-09T13:40:29.166Z,98825.35
2019-05-09T13:43:19.368Z,98824.20
2019-05-09T13:46:09.741Z,98825.86
2019-05-09T13:49:10.940Z,98828.51
2019-05-09T13:52:00.479Z,98823.17
2019-05-09T13:54:44.753Z,98826.77
2019-05-09T13:57:34.204Z,98828.88
2019-05-09T14:00:24.564Z,98823.12
2019-05-09T14:03:14.691Z,98827.53
2019-05-09T14:06:04.685Z,98826.90
2019-05-09T14:08:54.509Z,98826.09
2019-05-09T14:11:44.848Z,98828.70
2019-05-09T14:14:34.481Z,98835.41
2019-05-09T14:17:42.095Z,98826.09
2019-05-09T14:20:18.013Z,98831.72
2019-05-09T14:23:11.464Z,98832.33
2019-05-09T14:26:00.171Z,98835.94
2019-05-09T14:28:50.250Z,98835.02
2019-05-09T14:31:39.694Z,98828.81
2019-05-09T14:34:30.275Z,98828.16
2019-05-09T14:37:20.160Z,98831.36
2019-05-09T14:40:10.630Z,98829.20
2019-05-09T14:43:00.528Z,98834.64
2019-05-09T14:45:50.742Z,98830.74
2019-05-09T14:48:41.607Z,98834.22
2019-05-09T14:51:31.568Z,98836.41
2019-05-09T14:54:21.692Z,98840.77
2019-05-09T14:57:11.549Z,98838.82
2019-05-09T15:00:01.605Z,98838.81
2019-05-09T15:02:51.688Z,98832.52
2019-05-09T15:05:41.808Z,98842.53
2019-05-09T15:08:31.685Z,98840.34
2019-05-09T15:11:21.584Z,98843.10
2019-05-09T15:14:12.591Z,98838.61
2019-05-09T15:17:02.416Z,98840.11
2019-05-09T15:20:00.095Z,98845.06
2019-05-09T15:22:43.926Z,98843.34
2019-05-09T15:25:33.931Z,98845.06
2019-05-09T15:28:23.809Z,98847.83
2019-05-09T15:31:13.190Z,98851.48
2019-05-09T15:34:04.569Z,98840.23
2019-05-09T15:36:54.672Z,98843.33
2019-05-09T15:39:44.507Z,98844.58
2019-05-09T15:42:34.912Z,98839.28
2019-05-09T15:45:28.566Z,98842.14
2019-05-09T15:48:18.353Z,98840.31
2019-05-09T15:51:08.098Z,98846.17
2019-05-09T15:53:58.171Z,98832.73
2019-05-09T15:56:48.506Z,98834.67
2019-05-09T15:59:39.110Z,98833.08
2019-05-09T16:02:28.823Z,98838.02
2019-05-09T16:05:19.703Z,98828.14
2019-05-09T16:08:11.533Z,98835.16
2019-05-09T16:11:00.937Z,98827.13
2019-05-09T16:13:51.018Z,98823.92
2019-05-09T16:16:40.941Z,98821.95
2019-05-09T16:19:30.405Z,98829.55
2019-05-09T16:22:20.747Z,98827.81
2019-05-09T16:25:11.546Z,98828.61
2019-05-09T16:28:01.837Z,98824.23
2019-05-09T16:30:52.164Z,98824.59
2019-05-09T16:33:41.772Z,98836.27
2019-05-09T16:36:31.757Z,98840.91
2019-05-09T16:39:22.140Z,98837.97
2019-05-09T16:42:12.208Z,98851.55
2019-05-09T16:45:03.604Z,98849.64
2019-05-09T16:48:00.029Z,98850.82
2019-05-09T16:51:00.599Z,98851.96
2019-05-09T16:53:41.612Z,98861.11
2019-05-09T16:56:31.469Z,98859.61
2019-05-09T16:59:21.312Z,98863.93
2019-05-09T17:02:23.823Z,98863.28
2019-05-09T17:05:04.839Z,98865.23
2019-05-09T17:07:54.946Z,98865.83
2019-05-09T17:10:44.996Z,98868.78
2019-05-09T17:13:35.750Z,98869.84
2019-05-09T17:16:28.260Z,98865.40
2019-05-09T17:19:19.275Z,98859.13
2019-05-09T17:22:16.056Z,98861.09
2019-05-09T17:25:07.855Z,98867.38
2019-05-09T17:27:59.417Z,98871.77
2019-05-09T17:30:49.437Z,98864.69
2019-05-09T17:33:39.074Z,98874.18
2019-05-09T17:36:28.844Z,98875.74
2019-05-09T17:39:18.927Z,98871.69
2019-05-09T17:42:08.928Z,98873.25
2019-05-09T17:44:58.248Z,98879.98
2019-05-09T17:47:48.533Z,98877.15
2019-05-09T17:50:38.594Z,98877.86
2019-05-09T17:53:32.853Z,98881.08
2019-05-09T17:56:20.159Z,98885.81
2019-05-09T17:59:10.072Z,98887.36
2019-05-09T18:01:59.893Z,98893.95
2019-05-09T18:04:49.802Z,98886.63
2019-05-09T18:10:10.037Z,98894.58
2019-05-09T18:12:59.883Z,98894.98
2019-05-09T18:15:49.302Z,98894.56
2019-05-09T18:18:39.117Z,98893.83
2019-05-09T18:21:28.982Z,98892.30
2019-05-09T18:24:20.178Z,98894.63
2019-05-09T18:27:10.591Z,98899.43
2019-05-09T18:30:00.384Z,98898.85
2019-05-09T18:33:10.280Z,98902.55
2019-05-09T18:35:59.975Z,98903.23
2019-05-09T18:38:50.141Z,98904.58
2019-05-09T18:41:39.201Z,98905.95
2019-05-09T18:44:29.117Z,98912.16
2019-05-09T18:47:19.381Z,98907.15
2019-05-09T18:50:10.076Z,98921.21
2019-05-09T18:53:00.154Z,98922.16
2019-05-09T18:55:49.578Z,98922.11
2019-05-09T18:58:39.373Z,98928.58
2019-05-09T19:01:29.111Z,98928.70
2019-05-09T19:04:19.382Z,98935.91
2019-05-09T19:07:22.081Z,98937.13
2019-05-09T19:10:01.194Z,98948.44
2019-05-09T19:12:50.509Z,98948.82
2019-05-09T19:15:47.699Z,98954.45
2019-05-09T19:19:14.980Z,98958.11
2019-05-09T19:22:20.424Z,98958.28
2019-05-09T19:24:57.183Z,98974.52
2019-05-09T19:27:47.147Z,98972.52
2019-05-09T19:30:37.321Z,98972.86
2019-05-09T19:33:27.393Z,98972.42
2019-05-09T19:36:17.606Z,98978.25
2019-05-09T19:39:13.936Z,98980.22
2019-05-09T19:42:03.944Z,98989.91
2019-05-09T19:44:54.007Z,98989.95
2019-05-09T19:47:43.961Z,98987.87
2019-05-09T19:50:33.958Z,98991.42
2019-05-09T19:53:23.763Z,98990.37
2019-05-09T19:56:14.007Z,98996.42
2019-05-09T19:59:07.174Z,98998.11
2019-05-09T20:01:55.244Z,98996.42
2019-05-09T20:04:45.768Z,99000.25
2019-05-09T20:07:35.543Z,98994.02
2019-05-09T20:10:43.589Z,98997.34
2019-05-09T20:13:52.672Z,99005.21
2019-05-09T20:16:45.208Z,99008.85
2019-05-09T20:19:35.284Z,99005.84
2019-05-09T20:22:24.488Z,99005.84
2019-05-09T20:25:14.316Z,99013.22
2019-05-09T20:28:04.494Z,99007.48
2019-05-09T20:30:54.405Z,99017.09
2019-05-09T20:33:44.146Z,99013.09
2019-05-09T20:36:34.182Z,99018.67
2019-05-09T20:39:24.581Z,99018.26
2019-05-09T20:42:14.785Z,99019.98
2019-05-09T20:45:05.394Z,99026.89
2019-05-09T20:47:56.188Z,99026.66
2019-05-09T20:50:46.238Z,99027.56
2019-05-09T20:53:36.555Z,99028.97
2019-05-09T20:56:27.902Z,99027.15
2019-05-09T20:59:18.295Z,99031.56
2019-05-09T21:02:08.308Z,99031.13
2019-05-09T21:04:58.452Z,99038.08
2019-05-09T21:07:48.744Z,99043.91
2019-05-09T21:10:39.133Z,99050.56
2019-05-09T21:13:29.305Z,99047.68
2019-05-09T21:16:19.382Z,99054.81
2019-05-09T21:19:09.441Z,99057.64
2019-05-09T21:21:59.768Z,99063.19
2019-05-09T21:24:49.730Z,99068.44
2019-05-09T21:27:39.492Z,99064.49
2019-05-09T21:30:30.269Z,99069.70
2019-05-09T21:33:20.171Z,99067.62
2019-05-09T21:36:10.127Z,99071.47
2019-05-09T21:38:59.932Z,99062.81
2019-05-09T21:41:51.063Z,99066.42
2019-05-09T21:44:41.109Z,99069.17
2019-05-09T21:47:31.467Z,99075.23
2019-05-09T21:50:21.493Z,99077.98
2019-05-09T21:53:11.644Z,99083.45
2019-05-09T21:56:01.427Z,99082.64
2019-05-09T21:58:51.531Z,99087.30
2019-05-09T22:01:42.284Z,99090.38
2019-05-09T22:04:32.165Z,99095.33
2019-05-09T22:07:21.913Z,99101.37
2019-05-09T22:10:11.890Z,99105.24
2019-05-09T22:13:01.278Z,99106.11
2019-05-09T22:15:51.040Z,99114.33
2019-05-09T22:18:41.207Z,99111.39
2019-05-09T22:21:31.328Z,99114.43
2019-05-09T22:24:21.879Z,99116.63
2019-05-09T22:27:11.557Z,99119.92
2019-05-09T22:30:02.036Z,99118.28
2019-05-09T22:32:51.781Z,99123.48
2019-05-09T22:35:42.173Z,99122.94
2019-05-09T22:38:32.253Z,99121.28
2019-05-09T22:41:22.084Z,99121.58
2019-05-09T22:44:12.216Z,99125.69
2019-05-09T22:47:02.299Z,99125.16
2019-05-09T22:49:52.984Z,99124.05
2019-05-09T22:52:42.944Z,99121.62
2019-05-09T22:55:32.490Z,99123.80
2019-05-09T22:58:22.655Z,99127.61
2019-05-09T23:01:12.593Z,99124.89
2019-05-09T23:04:02.881Z,99134.93
2019-05-09T23:06:52.652Z,99134.69
2019-05-09T23:09:42.806Z,99131.97
2019-05-09T23:12:32.853Z,99136.83
2019-05-09T23:15:22.792Z,99128.65
2019-05-09T23:18:12.671Z,99138.14
2019-05-09T23:21:02.893Z,99137.61
2019-05-09T23:23:56.108Z,99146.31
2019-05-09T23:26:46.808Z,99146.86
2019-05-09T23:29:36.869Z,99145.52
2019-05-09T23:32:40.356Z,99069.84
2019-05-09T23:35:30.189Z,99146.95
2019-05-09T23:38:20.213Z,99145.61
2019-05-09T23:41:10.151Z,99149.41
2019-05-09T23:43:59.920Z,99148.05
2019-05-09T23:46:49.863Z,99149.41
2019-05-09T23:49:39.865Z,99157.58
2019-05-09T23:52:30.172Z,99161.66
2019-05-09T23:55:38.232Z,99166.85
2019-05-09T23:58:46.390Z,99164.13
